createdAt,value
2022-08-31T00:02:36.343Z,0.80
2022-08-31T00:05:22.262Z,0.95
2022-08-31T00:08:08.505Z,0.90
2022-08-31T00:10:55.512Z,0.90
2022-08-31T00:13:41.850Z,1.00
2022-08-31T00:16:31.559Z,0.77
2022-08-31T00:19:17.715Z,0.90
2022-08-31T00:22:03.184Z,0.90
2022-08-31T00:24:48.267Z,0.90
2022-08-31T00:27:34.174Z,0.98
2022-08-31T00:30:19.560Z,1.00
2022-08-31T00:33:06.347Z,0.80
2022-08-31T00:35:51.684Z,0.98
2022-08-31T00:38:39.269Z,1.00
2022-08-31T00:41:28.425Z,1.00
2022-08-31T00:44:14.016Z,1.00
2022-08-31T00:47:00.058Z,0.93
2022-08-31T00:49:51.384Z,0.90
2022-08-31T00:52:40.961Z,0.82
2022-08-31T00:55:30.867Z,1.00
2022-08-31T00:58:16.169Z,1.10
2022-08-31T01:01:01.396Z,1.00
2022-08-31T01:03:48.032Z,1.08
2022-08-31T01:06:33.927Z,0.90
2022-08-31T01:09:22.322Z,1.10
2022-08-31T01:12:09.109Z,0.77
2022-08-31T01:14:54.895Z,1.00
2022-08-31T01:17:42.134Z,0.95
2022-08-31T01:20:52.891Z,1.00
2022-08-31T01:23:44.109Z,0.98
2022-08-31T01:26:31.503Z,1.10
2022-08-31T01:29:17.417Z,0.90
2022-08-31T01:32:04.402Z,1.10
2022-08-31T01:34:50.143Z,0.88
2022-08-31T01:37:36.442Z,1.05
2022-08-31T01:40:26.923Z,0.85
2022-08-31T01:43:12.347Z,0.90
2022-08-31T01:45:57.726Z,0.90
2022-08-31T01:48:46.793Z,0.90
2022-08-31T01:51:32.131Z,0.98
2022-08-31T01:54:18.220Z,0.90
2022-08-31T01:57:03.473Z,0.90
2022-08-31T02:00:22.278Z,0.90
2022-08-31T02:03:08.073Z,0.80
2022-08-31T02:08:40.600Z,1.00
2022-08-31T02:11:26.275Z,0.93
2022-08-31T02:14:11.896Z,1.17
2022-08-31T02:16:57.145Z,1.10
2022-08-31T02:19:42.756Z,1.10
2022-08-31T02:22:28.252Z,1.10
2022-08-31T02:25:13.919Z,1.10
2022-08-31T02:27:59.028Z,0.95
2022-08-31T02:30:45.430Z,1.00
2022-08-31T02:33:30.849Z,1.10
2022-08-31T02:36:17.592Z,1.23
2022-08-31T02:39:03.558Z,0.90
2022-08-31T02:41:51.689Z,1.00
2022-08-31T02:44:37.236Z,1.00
2022-08-31T02:47:23.285Z,0.88
2022-08-31T02:50:29.764Z,1.08
2022-08-31T02:53:20.201Z,0.85
2022-08-31T02:56:07.962Z,0.88
2022-08-31T02:58:55.118Z,0.90
2022-08-31T03:01:42.551Z,0.80
2022-08-31T03:04:29.484Z,0.98
2022-08-31T03:07:14.729Z,1.00
2022-08-31T03:10:05.741Z,0.82
2022-08-31T03:12:52.234Z,0.65
2022-08-31T03:15:37.952Z,0.80
2022-08-31T03:18:24.475Z,0.70
2022-08-31T03:21:09.984Z,0.70
2022-08-31T03:23:55.760Z,0.70
2022-08-31T03:26:41.388Z,0.65
2022-08-31T03:29:26.867Z,0.73
2022-08-31T03:32:31.156Z,0.70
2022-08-31T03:35:18.131Z,0.60
2022-08-31T03:38:05.536Z,0.80
2022-08-31T03:40:51.724Z,0.50
2022-08-31T03:43:37.323Z,0.60
2022-08-31T03:46:23.890Z,0.50
2022-08-31T03:49:12.503Z,0.57
2022-08-31T03:52:04.358Z,0.50
2022-08-31T03:54:58.725Z,0.55
2022-08-31T03:57:44.619Z,0.40
2022-08-31T04:00:31.801Z,0.57
2022-08-31T04:03:23.694Z,0.80
2022-08-31T04:06:47.369Z,0.50
2022-08-31T04:09:51.487Z,0.40
2022-08-31T04:12:56.660Z,0.57
2022-08-31T04:16:00.388Z,0.55
2022-08-31T04:19:21.137Z,0.55
2022-08-31T04:22:15.457Z,1.00
2022-08-31T04:25:18.191Z,0.50
2022-08-31T04:28:09.045Z,0.60
2022-08-31T04:30:54.607Z,0.50
2022-08-31T04:33:41.805Z,0.55
2022-08-31T04:36:28.728Z,0.50
2022-08-31T04:39:14.275Z,0.70
2022-08-31T04:42:00.629Z,0.60
2022-08-31T04:44:48.399Z,0.50
2022-08-31T04:47:35.046Z,0.50
2022-08-31T04:50:22.513Z,0.63
2022-08-31T04:53:25.742Z,0.50
2022-08-31T04:56:14.490Z,0.70
2022-08-31T04:59:05.326Z,0.60
2022-08-31T05:01:55.528Z,0.60
2022-08-31T05:04:53.236Z,0.70
2022-08-31T05:07:38.743Z,0.68
2022-08-31T05:10:24.650Z,0.60
2022-08-31T05:13:10.829Z,0.68
2022-08-31T05:15:58.097Z,0.50
2022-08-31T05:18:45.756Z,0.60
2022-08-31T05:21:34.944Z,0.70
2022-08-31T05:24:22.603Z,0.70
2022-08-31T05:27:09.888Z,0.50
2022-08-31T05:29:55.676Z,0.85
2022-08-31T05:33:00.062Z,0.65
2022-08-31T05:35:48.173Z,0.50
2022-08-31T05:38:34.106Z,0.50
2022-08-31T05:41:22.180Z,0.52
2022-08-31T05:44:08.672Z,0.50
2022-08-31T05:47:00.913Z,0.80
2022-08-31T05:49:49.724Z,0.60
2022-08-31T05:52:38.011Z,0.65
2022-08-31T05:55:23.448Z,0.52
2022-08-31T05:58:09.956Z,0.70
2022-08-31T06:00:55.781Z,0.55
2022-08-31T06:04:02.335Z,0.43
2022-08-31T06:06:47.777Z,0.52
2022-08-31T06:09:38.451Z,0.50
2022-08-31T06:12:26.287Z,0.40
2022-08-31T06:15:13.538Z,0.50
2022-08-31T06:17:59.061Z,0.52
2022-08-31T06:20:45.874Z,0.60
2022-08-31T06:23:32.366Z,0.50
2022-08-31T06:26:20.786Z,0.57
2022-08-31T06:29:09.407Z,0.50
2022-08-31T06:31:55.777Z,0.50
2022-08-31T06:34:42.730Z,0.60
2022-08-31T06:37:33.121Z,0.50
2022-08-31T06:40:33.236Z,0.40
2022-08-31T06:43:48.548Z,0.65
2022-08-31T06:46:47.668Z,0.60
2022-08-31T06:49:42.860Z,0.40
2022-08-31T06:52:28.667Z,0.70
2022-08-31T06:55:28.848Z,0.45
2022-08-31T06:58:33.999Z,0.47
2022-08-31T07:01:43.339Z,0.60
2022-08-31T07:04:36.016Z,0.65
2022-08-31T07:07:21.625Z,0.70
2022-08-31T07:10:10.403Z,0.50
2022-08-31T07:12:55.953Z,0.90
2022-08-31T07:15:41.778Z,0.45
2022-08-31T07:18:27.653Z,0.60
2022-08-31T07:21:19.840Z,0.65
2022-08-31T07:24:06.403Z,0.70
2022-08-31T07:26:59.466Z,0.70
2022-08-31T07:29:54.379Z,0.68
2022-08-31T07:32:41.542Z,0.73
2022-08-31T07:35:26.810Z,0.70
2022-08-31T07:38:49.463Z,0.80
2022-08-31T07:41:55.924Z,0.65
2022-08-31T07:44:51.953Z,0.90
2022-08-31T07:47:46.086Z,0.80
2022-08-31T07:50:33.401Z,0.88
2022-08-31T07:53:42.841Z,0.70
2022-08-31T07:56:50.603Z,0.75
2022-08-31T07:59:39.379Z,0.68
2022-08-31T08:02:25.068Z,0.70
2022-08-31T08:05:21.141Z,0.70
2022-08-31T08:08:34.549Z,0.70
2022-08-31T08:11:33.281Z,0.70
2022-08-31T08:14:39.575Z,0.80
2022-08-31T08:17:51.449Z,0.68
2022-08-31T08:20:41.335Z,0.70
2022-08-31T08:23:28.598Z,0.63
2022-08-31T08:26:26.491Z,0.70
2022-08-31T08:29:26.195Z,0.80
2022-08-31T08:32:17.227Z,0.80
2022-08-31T08:35:03.863Z,0.70
2022-08-31T08:37:59.083Z,0.50
2022-08-31T08:40:47.137Z,0.70
2022-08-31T08:43:35.660Z,0.82
2022-08-31T08:47:37.826Z,0.70
2022-08-31T08:49:56.068Z,0.77
2022-08-31T08:52:46.970Z,0.60
2022-08-31T08:55:38.545Z,0.68
2022-08-31T08:58:25.551Z,0.70
2022-08-31T09:01:25.130Z,0.70
2022-08-31T09:04:30.848Z,0.80
2022-08-31T09:07:56.256Z,1.20
2022-08-31T09:11:02.760Z,0.80
2022-08-31T09:13:58.224Z,0.70
2022-08-31T09:17:17.770Z,0.82
2022-08-31T09:20:06.273Z,0.68
2022-08-31T09:22:55.644Z,0.65
2022-08-31T09:25:54.032Z,0.70
2022-08-31T09:28:58.478Z,0.80
2022-08-31T09:31:46.499Z,0.75
2022-08-31T09:34:37.177Z,0.80
2022-08-31T09:37:38.087Z,1.27
2022-08-31T09:40:36.328Z,0.90
2022-08-31T09:43:31.386Z,0.80
2022-08-31T09:46:28.052Z,0.77
2022-08-31T09:49:26.109Z,0.60
2022-08-31T09:52:42.703Z,0.80
2022-08-31T09:55:28.216Z,0.80
2022-08-31T09:58:14.467Z,0.95
2022-08-31T10:01:12.694Z,0.65
2022-08-31T10:04:17.315Z,0.70
2022-08-31T10:07:28.599Z,0.90
2022-08-31T10:10:30.339Z,0.70
2022-08-31T10:13:54.832Z,0.80
2022-08-31T10:16:47.955Z,0.60
2022-08-31T10:20:08.909Z,0.68
2022-08-31T10:23:08.672Z,0.60
2022-08-31T10:26:00.962Z,0.80
2022-08-31T10:28:55.723Z,0.90
2022-08-31T10:31:46.257Z,0.60
2022-08-31T10:34:59.275Z,0.70
2022-08-31T10:38:08.197Z,0.70
2022-08-31T10:41:15.969Z,0.80
2022-08-31T10:44:23.833Z,0.70
2022-08-31T10:47:17.898Z,0.70
2022-08-31T10:50:25.898Z,0.70
2022-08-31T10:53:22.968Z,0.70
2022-08-31T10:56:18.482Z,0.60
2022-08-31T10:59:39.060Z,0.77
2022-08-31T11:02:42.636Z,0.90
2022-08-31T11:05:39.184Z,0.70
2022-08-31T11:08:49.742Z,0.70
2022-08-31T11:11:45.690Z,0.80
2022-08-31T11:15:03.124Z,0.80
2022-08-31T11:18:28.710Z,0.60
2022-08-31T11:21:42.172Z,0.80
2022-08-31T11:24:58.333Z,0.73
2022-08-31T11:28:03.003Z,0.50
2022-08-31T11:30:50.530Z,0.80
2022-08-31T11:33:36.980Z,0.55
2022-08-31T11:36:47.079Z,0.90
2022-08-31T11:39:39.271Z,0.73
2022-08-31T11:42:27.701Z,0.70
2022-08-31T11:45:31.163Z,0.70
2022-08-31T11:48:51.870Z,0.70
2022-08-31T11:51:43.091Z,0.70
2022-08-31T11:54:28.306Z,0.80
2022-08-31T11:57:17.986Z,0.63
2022-08-31T12:00:17.241Z,0.50
2022-08-31T12:03:09.281Z,0.70
2022-08-31T12:05:58.076Z,0.90
2022-08-31T12:08:53.094Z,0.80
2022-08-31T12:11:52.784Z,0.63
2022-08-31T12:14:52.833Z,0.70
2022-08-31T12:18:04.867Z,0.60
2022-08-31T12:21:46.853Z,0.80
2022-08-31T12:25:03.498Z,0.70
2022-08-31T12:28:29.245Z,0.60
2022-08-31T12:31:17.986Z,0.60
2022-08-31T12:34:12.655Z,0.60
2022-08-31T12:36:58.094Z,0.80
2022-08-31T12:39:43.312Z,0.73
2022-08-31T12:42:31.393Z,0.70
2022-08-31T12:45:17.595Z,0.65
2022-08-31T12:48:33.526Z,0.70
2022-08-31T12:51:43.720Z,1.00
2022-08-31T12:54:51.302Z,0.80
2022-08-31T12:57:59.800Z,0.60
2022-08-31T13:00:45.658Z,0.80
2022-08-31T13:03:31.362Z,0.60
2022-08-31T13:06:45.129Z,0.65
2022-08-31T13:09:35.448Z,0.70
2022-08-31T13:12:23.926Z,0.70
2022-08-31T13:15:22.499Z,0.95
2022-08-31T13:18:19.764Z,0.73
2022-08-31T13:21:05.819Z,0.60
2022-08-31T13:23:51.643Z,0.57
2022-08-31T13:26:37.998Z,0.52
2022-08-31T13:29:24.220Z,0.50
2022-08-31T13:32:33.374Z,0.70
2022-08-31T13:35:21.969Z,0.70
2022-08-31T13:38:08.986Z,0.85
2022-08-31T13:40:55.930Z,0.60
2022-08-31T13:43:41.501Z,0.70
2022-08-31T13:46:42.782Z,0.70
2022-08-31T13:49:35.506Z,0.70
2022-08-31T13:52:28.409Z,0.60
2022-08-31T13:55:38.277Z,0.50
2022-08-31T13:58:28.732Z,0.60
2022-08-31T14:01:25.436Z,0.55
2022-08-31T14:04:43.903Z,0.57
2022-08-31T14:07:45.532Z,0.70
2022-08-31T14:10:49.729Z,0.60
2022-08-31T14:13:37.074Z,0.60
2022-08-31T14:16:52.123Z,0.50
2022-08-31T14:19:42.778Z,0.60
2022-08-31T14:22:32.455Z,0.70
2022-08-31T14:25:22.072Z,0.70
2022-08-31T14:28:09.079Z,0.77
2022-08-31T14:30:57.118Z,1.10
2022-08-31T14:33:43.665Z,2.55
2022-08-31T14:36:34.208Z,4.15
2022-08-31T14:39:30.834Z,0.90
2022-08-31T14:42:21.279Z,1.40
2022-08-31T14:45:20.947Z,1.45
2022-08-31T14:48:13.194Z,0.98
2022-08-31T14:50:59.144Z,1.05
2022-08-31T14:53:44.560Z,0.90
2022-08-31T14:56:33.724Z,0.90
2022-08-31T14:59:21.714Z,1.02
2022-08-31T15:02:13.001Z,0.73
2022-08-31T15:05:06.349Z,0.87
2022-08-31T15:07:53.984Z,0.70
2022-08-31T15:10:41.095Z,0.73
2022-08-31T15:13:29.411Z,0.60
2022-08-31T15:16:18.838Z,0.80
2022-08-31T15:19:08.988Z,0.90
2022-08-31T15:22:02.700Z,0.57
2022-08-31T15:24:50.222Z,0.60
2022-08-31T15:27:36.447Z,0.57
2022-08-31T15:30:23.184Z,0.63
2022-08-31T15:33:10.002Z,0.70
2022-08-31T15:36:10.167Z,0.70
2022-08-31T15:38:57.144Z,0.70
2022-08-31T15:41:43.116Z,0.60
2022-08-31T15:44:29.054Z,1.05
2022-08-31T15:47:32.992Z,0.60
2022-08-31T15:50:21.003Z,0.65
2022-08-31T15:53:09.940Z,0.60
2022-08-31T15:56:05.330Z,0.50
2022-08-31T15:58:58.412Z,0.77
2022-08-31T16:01:43.849Z,0.73
2022-08-31T16:04:29.709Z,0.60
2022-08-31T16:07:15.301Z,0.75
2022-08-31T16:10:03.207Z,0.50
2022-08-31T16:12:50.470Z,0.50
2022-08-31T16:15:37.955Z,1.15
2022-08-31T16:18:23.326Z,0.63
2022-08-31T16:21:09.501Z,0.70
2022-08-31T16:24:00.711Z,1.15
2022-08-31T16:26:51.076Z,0.60
2022-08-31T16:29:36.821Z,0.50
2022-08-31T16:32:22.139Z,0.73
2022-08-31T16:35:08.172Z,0.50
2022-08-31T16:37:54.796Z,0.52
2022-08-31T16:40:41.723Z,0.55
2022-08-31T16:43:27.384Z,0.52
2022-08-31T16:46:37.289Z,0.65
2022-08-31T16:49:34.418Z,0.55
2022-08-31T16:52:24.125Z,0.57
2022-08-31T16:55:16.014Z,0.50
2022-08-31T16:58:01.099Z,0.50
2022-08-31T17:00:46.653Z,0.73
2022-08-31T17:03:31.940Z,0.50
2022-08-31T17:06:18.030Z,0.60
2022-08-31T17:09:18.773Z,0.60
2022-08-31T17:12:07.636Z,0.70
2022-08-31T17:14:53.671Z,0.50
2022-08-31T17:17:39.385Z,0.50
2022-08-31T17:20:24.895Z,0.65
2022-08-31T17:23:13.004Z,0.73
2022-08-31T17:25:59.816Z,0.60
2022-08-31T17:28:51.779Z,0.52
2022-08-31T17:31:44.015Z,0.75
2022-08-31T17:34:33.039Z,0.75
2022-08-31T17:37:26.406Z,0.90
2022-08-31T17:40:14.249Z,0.80
2022-08-31T17:43:01.834Z,0.70
2022-08-31T17:45:47.532Z,0.80
2022-08-31T17:48:35.699Z,0.90
2022-08-31T17:51:28.610Z,0.70
2022-08-31T17:54:19.943Z,0.80
2022-08-31T17:57:06.946Z,0.70
2022-08-31T17:59:53.104Z,0.90
2022-08-31T18:02:38.495Z,1.10
2022-08-31T18:05:23.936Z,0.82
2022-08-31T18:08:09.456Z,0.90
2022-08-31T18:10:54.967Z,0.90
2022-08-31T18:13:41.498Z,0.90
2022-08-31T18:16:27.144Z,0.80
2022-08-31T18:19:13.662Z,0.77
2022-08-31T18:22:03.174Z,0.80
2022-08-31T18:24:49.038Z,0.95
2022-08-31T18:27:34.699Z,1.10
2022-08-31T18:30:21.071Z,0.90
2022-08-31T18:33:06.172Z,0.70
2022-08-31T18:35:52.725Z,0.95
2022-08-31T18:38:38.580Z,0.80
2022-08-31T18:41:45.816Z,0.88
2022-08-31T18:44:51.281Z,1.10
2022-08-31T18:47:37.091Z,0.90
2022-08-31T18:50:23.289Z,0.98
2022-08-31T18:53:11.051Z,1.10
2022-08-31T18:56:09.977Z,1.00
2022-08-31T18:58:55.305Z,1.10
2022-08-31T19:01:41.424Z,1.17
2022-08-31T19:04:26.850Z,1.17
2022-08-31T19:07:13.353Z,1.30
2022-08-31T19:09:58.668Z,1.10
2022-08-31T19:12:45.475Z,1.35
2022-08-31T19:15:35.791Z,1.30
2022-08-31T19:18:22.063Z,1.10
2022-08-31T19:21:20.268Z,1.20
2022-08-31T19:24:09.414Z,1.38
2022-08-31T19:26:58.600Z,1.20
2022-08-31T19:29:43.909Z,1.20
2022-08-31T19:32:29.479Z,1.10
2022-08-31T19:35:15.899Z,0.90
2022-08-31T19:38:01.323Z,0.95
2022-08-31T19:40:46.893Z,1.00
2022-08-31T19:44:01.925Z,1.00
2022-08-31T19:46:40.823Z,0.95
2022-08-31T19:49:28.071Z,1.20
2022-08-31T19:52:13.495Z,1.13
2022-08-31T19:55:09.079Z,1.15
2022-08-31T19:57:54.692Z,1.13
2022-08-31T20:00:39.897Z,1.15
2022-08-31T20:03:27.285Z,0.98
2022-08-31T20:06:15.243Z,1.08
2022-08-31T20:09:00.561Z,1.00
2022-08-31T20:11:49.176Z,1.00
2022-08-31T20:14:35.645Z,0.98
2022-08-31T20:17:21.517Z,0.93
2022-08-31T20:20:11.008Z,1.02
2022-08-31T20:22:56.614Z,1.02
2022-08-31T20:25:43.575Z,1.00
2022-08-31T20:28:28.825Z,1.35
2022-08-31T20:31:18.039Z,1.10
2022-08-31T20:34:03.834Z,1.00
2022-08-31T20:36:50.816Z,1.00
2022-08-31T20:39:37.245Z,1.10
2022-08-31T20:42:25.593Z,1.25
2022-08-31T20:45:11.012Z,1.30
2022-08-31T20:48:15.338Z,1.10
2022-08-31T20:51:16.330Z,1.25
2022-08-31T20:54:01.809Z,0.95
2022-08-31T20:56:47.175Z,1.35
2022-08-31T20:59:34.422Z,1.30
2022-08-31T21:02:22.583Z,1.23
2022-08-31T21:05:37.091Z,1.00
2022-08-31T21:08:16.877Z,1.00
2022-08-31T21:11:16.415Z,1.27
2022-08-31T21:14:03.231Z,1.10
2022-08-31T21:16:50.072Z,1.20
2022-08-31T21:19:39.320Z,1.05
2022-08-31T21:22:25.732Z,1.30
2022-08-31T21:25:12.876Z,1.05
2022-08-31T21:27:59.891Z,1.15
2022-08-31T21:30:47.142Z,1.30
2022-08-31T21:33:35.918Z,1.00
2022-08-31T21:36:26.530Z,1.10
2022-08-31T21:39:15.950Z,1.25
2022-08-31T21:42:01.705Z,1.25
2022-08-31T21:44:46.983Z,0.90
2022-08-31T21:47:34.428Z,0.90
2022-08-31T21:50:20.043Z,0.90
2022-08-31T21:53:05.577Z,1.05
2022-08-31T21:55:51.701Z,1.05
2022-08-31T21:58:37.178Z,0.98
2022-08-31T22:01:23.771Z,1.10
2022-08-31T22:04:10.081Z,1.10
2022-08-31T22:06:55.885Z,0.82
2022-08-31T22:09:42.814Z,0.80
2022-08-31T22:12:29.029Z,1.02
2022-08-31T22:15:16.949Z,1.00
2022-08-31T22:18:46.111Z,1.17
2022-08-31T22:21:34.974Z,0.90
2022-08-31T22:24:26.977Z,0.80
2022-08-31T22:27:13.140Z,1.08
2022-08-31T22:29:58.517Z,1.20
2022-08-31T22:32:48.051Z,1.00
2022-08-31T22:35:38.938Z,1.00
2022-08-31T22:38:24.761Z,1.05
2022-08-31T22:41:11.573Z,1.00
2022-08-31T22:43:56.612Z,1.15
2022-08-31T22:46:42.432Z,1.30
2022-08-31T22:49:27.893Z,1.25
2022-08-31T22:52:17.218Z,1.15
2022-08-31T22:55:04.576Z,1.13
2022-08-31T22:57:50.040Z,1.00
2022-08-31T23:00:36.065Z,1.20
2022-08-31T23:03:22.039Z,1.38
2022-08-31T23:06:07.459Z,0.98
2022-08-31T23:08:54.844Z,1.10
2022-08-31T23:11:40.423Z,1.10
2022-08-31T23:14:25.584Z,1.10
2022-08-31T23:17:11.161Z,0.90
2022-08-31T23:19:56.532Z,1.00
2022-08-31T23:22:42.082Z,1.30
2022-08-31T23:25:27.237Z,0.90
2022-08-31T23:28:12.748Z,1.08
2022-08-31T23:30:58.049Z,0.90
2022-08-31T23:33:47.075Z,1.02
2022-08-31T23:36:32.560Z,1.00
2022-08-31T23:39:20.420Z,1.17
2022-08-31T23:42:06.465Z,1.10
2022-08-31T23:44:51.715Z,1.10
2022-08-31T23:47:38.288Z,1.20
2022-08-31T23:50:23.305Z,1.05
2022-08-31T23:53:14.484Z,1.00
2022-08-31T23:56:00.051Z,1.00
2022-08-31T23:58:46.495Z,1.10
